Time;durP1;ratioP1;P1;durP2;ratioP2;P2;SDS_P1;SDS_P2;PMS_P1;PMS_P2;Temp;Humidity;BMP_temperature;BMP_pressure;BME280_temperature;BME280_humidity;BME280_pressure;Samples;Min_cycle;Max_cycle;Signal;HPM_P1;HPM_P2
2023/07/01 00:00:29;;;;;;;4.28;2.80;;;;;;;18.28;53.08;100633.78;5060161;28;20025;-73
2023/07/01 00:02:54;;;;;;;5.95;2.90;;;;;;;18.28;52.97;100628.41;5060772;28;20400;-75
2023/07/01 00:05:20;;;;;;;8.18;2.78;;;;;;;18.28;53.21;100628.41;5056047;28;20194;-70
2023/07/01 00:07:46;;;;;;;4.93;2.88;;;;;;;18.22;53.82;100611.91;5047566;28;20036;-75
2023/07/01 00:10:11;;;;;;;5.90;2.60;;;;;;;18.25;54.22;100619.72;5058254;28;20028;-75
2023/07/01 00:12:37;;;;;;;5.30;2.25;;;;;;;18.26;53.64;100614.19;5045802;28;20028;-73
2023/07/01 00:15:03;;;;;;;3.28;2.15;;;;;;;18.20;53.88;100595.88;5066416;28;20495;-75
2023/07/01 00:17:29;;;;;;;7.05;3.00;;;;;;;18.20;53.92;100606.66;5044662;28;20047;-73
2023/07/01 00:19:54;;;;;;;6.47;2.50;;;;;;;18.24;54.50;100594.63;5062109;28;20101;-73
2023/07/01 00:22:19;;;;;;;3.97;2.33;;;;;;;18.16;54.27;100605.22;5051105;28;20049;-72
2023/07/01 00:24:45;;;;;;;5.78;2.50;;;;;;;18.18;54.96;100595.16;5042135;28;20031;-75
2023/07/01 00:27:10;;;;;;;3.35;2.25;;;;;;;18.14;55.10;100593.69;5042589;28;20031;-74
2023/07/01 00:29:35;;;;;;;5.28;2.70;;;;;;;18.17;54.94;100593.44;5045806;28;20052;-70
2023/07/01 00:32:01;;;;;;;6.03;2.30;;;;;;;18.12;55.05;100588.47;5054253;28;20047;-70
2023/07/01 00:34:26;;;;;;;3.95;2.55;;;;;;;18.10;54.99;100584.19;5048846;28;20029;-75
2023/07/01 00:36:52;;;;;;;5.72;2.55;;;;;;;18.09;55.72;100579.78;5052252;28;20109;-73
2023/07/01 00:39:17;;;;;;;3.42;2.15;;;;;;;18.09;55.63;100582.47;5061596;28;20466;-74
2023/07/01 00:41:42;;;;;;;7.45;2.95;;;;;;;18.01;56.00;100575.06;5048701;28;20082;-76
2023/07/01 00:44:08;;;;;;;3.92;2.35;;;;;;;18.04;55.83;100569.41;5046607;28;20032;-71
2023/07/01 00:46:33;;;;;;;4.93;2.65;;;;;;;18.04;56.07;100566.72;5056777;28;20032;-72
2023/07/01 00:49:02;;;;;;;4.25;2.70;;;;;;;18.02;56.38;100566.00;5060058;28;20449;-70
2023/07/01 00:51:28;;;;;;;4.43;2.53;;;;;;;18.02;56.24;100557.09;5052932;28;20043;-74
2023/07/01 00:53:55;;;;;;;3.83;2.40;;;;;;;17.97;56.67;100548.53;5052483;28;20016;-76
2023/07/01 00:56:20;;;;;;;4.85;2.00;;;;;;;17.98;56.76;100545.72;5053772;28;20060;-74
2023/07/01 00:58:46;;;;;;;3.08;2.30;;;;;;;17.96;57.20;100549.53;5054262;28;20154;-74
2023/07/01 01:01:17;;;;;;;4.72;2.30;;;;;;;17.98;57.14;100544.88;5053231;28;20198;-76
2023/07/01 01:04:01;;;;;;;4.10;2.25;;;;;;;17.98;57.05;100539.50;5055893;28;20218;-72
2023/07/01 01:06:43;;;;;;;4.60;2.60;;;;;;;17.98;57.35;100545.72;5047473;28;20028;-71
2023/07/01 01:09:19;;;;;;;5.03;2.50;;;;;;;17.94;57.58;100541.59;5048984;28;20025;-72
2023/07/01 01:11:46;;;;;;;4.75;2.78;;;;;;;17.91;57.96;100540.00;5053060;28;20471;-73
2023/07/01 01:14:14;;;;;;;3.75;2.60;;;;;;;17.89;58.35;100533.91;5058776;28;20023;-76
2023/07/01 01:16:41;;;;;;;5.13;2.78;;;;;;;17.82;58.00;100524.66;5058364;28;20048;-73
2023/07/01 01:19:37;;;;;;;3.38;2.28;;;;;;;17.89;57.74;100528.53;5058714;28;20071;-73
2023/07/01 01:22:27;;;;;;;3.63;2.13;;;;;;;17.88;58.19;100520.56;5051257;28;20553;-73
2023/07/01 01:25:00;;;;;;;5.20;2.42;;;;;;;17.84;58.94;100519.97;5040696;28;20036;-71
2023/07/01 01:27:28;;;;;;;6.40;2.42;;;;;;;17.85;59.68;100512.78;5045482;28;20178;-74
2023/07/01 01:29:53;;;;;;;3.70;2.28;;;;;;;17.85;59.88;100519.00;5054850;28;20091;-76
2023/07/01 01:32:19;;;;;;;4.50;2.30;;;;;;;17.85;60.21;100516.31;5054286;28;20025;-70
2023/07/01 01:34:46;;;;;;;5.68;2.50;;;;;;;17.81;60.51;100503.25;5048435;28;20037;-72
2023/07/01 01:37:21;;;;;;;4.10;2.20;;;;;;;17.82;60.59;100505.81;5058651;28;20032;-75
2023/07/01 01:39:51;;;;;;;6.18;2.88;;;;;;;17.77;61.46;100509.88;5061135;28;20051;-74
2023/07/01 01:42:27;;;;;;;4.70;2.33;;;;;;;17.81;61.86;100511.34;5061124;28;20040;-73
2023/07/01 01:44:54;;;;;;;5.97;2.50;;;;;;;17.74;62.46;100497.53;5059403;28;20028;-69
2023/07/01 01:47:24;;;;;;;4.68;2.50;;;;;;;17.72;62.89;100496.75;5057862;28;20047;-73
2023/07/01 01:49:55;;;;;;;3.80;2.33;;;;;;;17.67;63.46;100494.47;5063929;28;20071;-75
2023/07/01 01:52:22;;;;;;;6.38;2.72;;;;;;;17.68;64.06;100489.94;5056700;28;20033;-75
2023/07/01 01:54:50;;;;;;;4.88;2.58;;;;;;;17.63;65.77;100494.88;5055201;28;20094;-72
2023/07/01 01:57:16;;;;;;;5.22;2.60;;;;;;;17.41;66.82;100488.66;5057406;28;20174;-75
2023/07/01 01:59:43;;;;;;;5.40;2.70;;;;;;;17.24;68.75;100486.53;5062954;28;20478;-72
2023/07/01 02:02:09;;;;;;;5.35;3.08;;;;;;;17.24;68.59;100486.53;5053082;28;20267;-73
2023/07/01 02:04:34;;;;;;;4.75;2.90;;;;;;;17.30;68.98;100474.38;5062513;28;20170;-74
2023/07/01 02:07:00;;;;;;;5.10;2.83;;;;;;;17.33;69.22;100474.13;5058387;28;20036;-77
2023/07/01 02:09:25;;;;;;;4.53;2.83;;;;;;;17.35;68.76;100472.19;5058259;28;20124;-74
2023/07/01 02:11:51;;;;;;;6.40;3.05;;;;;;;17.36;68.70;100474.75;5055842;28;20168;-75
2023/07/01 02:14:16;;;;;;;4.45;3.00;;;;;;;17.41;69.05;100471.66;5060349;28;20130;-75
2023/07/01 02:16:41;;;;;;;7.65;3.22;;;;;;;17.41;68.72;100466.28;5054466;28;20402;-76
2023/07/01 02:19:07;;;;;;;5.30;3.20;;;;;;;17.41;69.20;100466.28;5062152;28;20225;-76
2023/07/01 02:21:32;;;;;;;5.28;3.28;;;;;;;17.32;70.11;100462.53;5060232;28;20178;-74
2023/07/01 02:23:58;;;;;;;5.82;3.20;;;;;;;17.30;70.58;100452.88;5059885;28;20033;-73
2023/07/01 02:26:24;;;;;;;4.85;3.20;;;;;;;17.31;70.55;100466.22;5056186;28;20290;-75
2023/07/01 02:28:50;;;;;;;5.70;3.10;;;;;;;17.31;70.55;100468.06;5057343;28;20044;-72
2023/07/01 02:31:18;;;;;;;6.03;3.65;;;;;;;17.32;70.25;100462.53;5062587;28;20384;-73
2023/07/01 02:33:46;;;;;;;5.10;2.90;;;;;;;17.29;70.55;100454.72;5054910;28;20204;-71
2023/07/01 02:36:11;;;;;;;6.05;3.22;;;;;;;17.29;71.18;100461.94;5057924;28;20174;-75
2023/07/01 02:38:37;;;;;;;4.40;2.97;;;;;;;17.25;71.68;100460.50;5062034;28;20698;-75
2023/07/01 02:41:02;;;;;;;4.95;3.30;;;;;;;17.26;72.80;100451.44;5055832;28;20111;-71
2023/07/01 02:43:28;;;;;;;5.18;2.72;;;;;;;17.30;72.76;100442.97;5060465;28;20035;-73
2023/07/01 02:45:53;;;;;;;7.53;3.78;;;;;;;17.24;74.96;100438.13;5057955;28;20039;-76
2023/07/01 02:48:19;;;;;;;3.70;2.20;;;;;;;17.16;77.51;100438.78;5064033;28;20521;-71
2023/07/01 02:50:44;;;;;;;2.72;2.20;;;;;;;17.09;78.93;100440.25;5060347;28;20090;-72
2023/07/01 02:53:09;;;;;;;3.17;2.38;;;;;;;17.00;80.07;100437.50;5054705;28;20395;-74
2023/07/01 02:55:35;;;;;;;4.53;2.42;;;;;;;16.90;81.76;100434.75;5056288;28;20036;-71
2023/07/01 02:58:04;;;;;;;4.45;2.65;;;;;;;16.82;82.83;100430.00;5060747;28;20032;-74
2023/07/01 03:00:29;;;;;;;4.00;2.85;;;;;;;16.67;84.99;100429.41;5055391;28;20037;-73
2023/07/01 03:03:05;;;;;;;4.15;2.42;;;;;;;16.63;84.81;100437.84;5054008;28;20051;-74
2023/07/01 03:05:37;;;;;;;3.75;2.58;;;;;;;16.55;85.34;100430.41;5054330;28;20032;-70
2023/07/01 03:08:06;;;;;;;4.70;2.65;;;;;;;16.60;84.63;100438.13;5057247;28;20147;-74
2023/07/01 03:10:35;;;;;;;4.03;3.03;;;;;;;16.60;84.79;100438.97;5056363;28;20060;-73
2023/07/01 03:13:04;;;;;;;4.55;2.55;;;;;;;16.60;85.83;100443.50;5047775;28;20403;-74
2023/07/01 03:15:29;;;;;;;3.67;2.28;;;;;;;16.59;85.70;100425.66;5053115;28;20043;-72
2023/07/01 03:17:54;;;;;;;4.05;2.85;;;;;;;16.59;86.33;100433.72;5055807;28;20040;-72
2023/07/01 03:20:22;;;;;;;4.70;3.13;;;;;;;16.44;90.44;100419.72;5058565;28;20039;-73
2023/07/01 03:22:52;;;;;;;3.17;2.67;;;;;;;16.01;95.04;100427.69;5047133;28;20454;-72
2023/07/01 03:25:18;;;;;;;5.47;2.92;;;;;;;15.58;99.05;100412.28;5050762;28;20037;-72
2023/07/01 03:27:44;;;;;;;4.55;3.10;;;;;;;15.42;100.00;100413.53;5051488;28;20025;-70
2023/07/01 03:30:13;;;;;;;3.92;3.20;;;;;;;15.13;100.00;100406.84;5061395;28;20067;-74
2023/07/01 03:32:47;;;;;;;4.90;3.15;;;;;;;15.03;100.00;100405.84;5051566;28;20091;-70
2023/07/01 03:35:14;;;;;;;7.95;3.28;;;;;;;14.92;100.00;100404.84;5054573;28;20094;-73
2023/07/01 03:37:41;;;;;;;5.35;3.42;;;;;;;14.85;100.00;100395.56;5062631;28;20039;-71
2023/07/01 03:40:10;;;;;;;5.60;3.50;;;;;;;14.78;100.00;100394.31;5050311;28;20028;-72
2023/07/01 03:42:39;;;;;;;5.43;3.67;;;;;;;14.82;100.00;100392.25;5049244;28;20039;-73
2023/07/01 03:45:07;;;;;;;4.10;3.60;;;;;;;14.85;100.00;100392.88;5050224;28;20033;-73
2023/07/01 03:47:34;;;;;;;4.70;3.63;;;;;;;14.94;100.00;100394.00;5059289;28;20499;-74
2023/07/01 03:49:59;;;;;;;4.65;3.38;;;;;;;15.01;100.00;100384.53;5062857;28;20024;-73
2023/07/01 03:52:25;;;;;;;5.97;3.70;;;;;;;15.05;100.00;100388.69;5056762;28;20524;-72
2023/07/01 03:54:50;;;;;;;4.85;3.80;;;;;;;14.98;100.00;100381.25;5054660;28;20610;-69
2023/07/01 03:57:16;;;;;;;4.00;3.60;;;;;;;14.91;100.00;100388.88;5055695;28;20580;-68
2023/07/01 03:59:41;;;;;;;5.05;3.97;;;;;;;14.77;100.00;100387.25;5059503;28;20085;-72
2023/07/01 04:02:06;;;;;;;5.03;3.95;;;;;;;14.70;100.00;100386.00;5058457;28;20275;-68
2023/07/01 04:04:32;;;;;;;4.47;3.70;;;;;;;14.64;100.00;100386.47;5043892;28;20083;-67
2023/07/01 04:06:58;;;;;;;5.28;3.90;;;;;;;14.57;100.00;100375.34;5055213;28;20391;-69
2023/07/01 04:09:23;;;;;;;4.20;3.80;;;;;;;14.58;100.00;100373.53;5060648;28;20027;-69
2023/07/01 04:11:48;;;;;;;5.38;4.25;;;;;;;14.53;100.00;100365.00;5054651;28;20518;-69
2023/07/01 04:14:15;;;;;;;4.85;4.22;;;;;;;14.55;100.00;100365.75;5042831;28;20509;-68
2023/07/01 04:16:43;;;;;;;5.07;3.95;;;;;;;14.52;100.00;100368.66;5054136;28;20052;-68
2023/07/01 04:19:08;;;;;;;5.47;4.05;;;;;;;14.51;100.00;100362.44;5049748;28;20519;-69
2023/07/01 04:21:34;;;;;;;4.95;4.25;;;;;;;14.49;100.00;100363.50;5057204;28;20079;-68
2023/07/01 04:24:02;;;;;;;5.53;4.40;;;;;;;14.48;100.00;100365.31;5046689;28;20043;-67
2023/07/01 04:26:27;;;;;;;5.28;4.72;;;;;;;14.53;100.00;100351.59;5053271;28;20024;-67
2023/07/01 04:28:52;;;;;;;5.10;4.60;;;;;;;14.42;100.00;100342.53;5057357;28;20336;-67
2023/07/01 04:31:18;;;;;;;5.03;4.57;;;;;;;14.49;100.00;100347.44;5051020;28;20043;-67
2023/07/01 04:33:44;;;;;;;5.82;4.78;;;;;;;14.51;100.00;100353.56;5055427;28;20032;-67
2023/07/01 04:36:10;;;;;;;4.57;4.22;;;;;;;14.49;100.00;100350.97;5057311;28;20032;-67
2023/07/01 04:38:35;;;;;;;4.60;4.30;;;;;;;14.49;100.00;100348.28;5060050;28;20445;-67
2023/07/01 04:41:01;;;;;;;5.10;4.38;;;;;;;14.45;100.00;100346.78;5047782;28;20394;-66
2023/07/01 04:43:29;;;;;;;5.07;4.55;;;;;;;14.47;100.00;100344.88;5057097;28;20060;-67
2023/07/01 04:45:54;;;;;;;5.10;4.60;;;;;;;14.44;100.00;100337.91;5060208;28;20179;-68
2023/07/01 04:48:20;;;;;;;5.22;4.72;;;;;;;14.44;100.00;100329.03;5042794;28;20047;-67
2023/07/01 04:50:45;;;;;;;5.22;4.72;;;;;;;14.45;100.00;100333.41;5042472;28;20029;-67
2023/07/01 04:53:10;;;;;;;5.35;4.85;;;;;;;14.39;100.00;100337.41;5054545;28;20039;-67
2023/07/01 04:55:36;;;;;;;4.63;4.22;;;;;;;14.42;100.00;100331.81;5050560;28;20032;-69
2023/07/01 04:58:04;;;;;;;5.50;4.75;;;;;;;14.46;100.00;100327.06;5043225;28;20880;-67
2023/07/01 05:00:30;;;;;;;4.75;4.35;;;;;;;14.45;100.00;100325.38;5042905;28;20025;-67
2023/07/01 05:02:55;;;;;;;5.10;4.68;;;;;;;14.43;100.00;100325.50;5048652;28;20071;-67
2023/07/01 05:05:20;;;;;;;5.28;4.50;;;;;;;14.42;100.00;100326.47;5043562;28;20516;-68
2023/07/01 05:07:46;;;;;;;5.38;4.70;;;;;;;14.43;100.00;100317.47;5057145;28;20040;-68
2023/07/01 05:10:12;;;;;;;5.38;4.57;;;;;;;14.45;100.00;100320.84;5052903;28;20476;-68
2023/07/01 05:12:37;;;;;;;5.90;5.30;;;;;;;14.48;100.00;100316.25;5051639;28;21106;-68
2023/07/01 05:15:03;;;;;;;5.18;4.65;;;;;;;14.49;100.00;100307.28;5059132;28;20111;-67
2023/07/01 05:17:28;;;;;;;5.35;4.15;;;;;;;14.48;100.00;100306.41;5059121;28;21454;-68
2023/07/01 05:19:54;;;;;;;4.38;3.97;;;;;;;14.49;100.00;100308.13;5057944;28;20033;-68
2023/07/01 05:22:19;;;;;;;4.88;4.38;;;;;;;14.55;100.00;100315.72;5075665;28;20055;-69
2023/07/01 05:24:44;;;;;;;4.43;4.03;;;;;;;14.55;100.00;100312.19;5057020;28;20031;-69
2023/07/01 05:27:10;;;;;;;4.90;4.50;;;;;;;14.62;100.00;100308.91;5056565;28;20020;-69
2023/07/01 05:29:35;;;;;;;4.95;4.47;;;;;;;14.57;100.00;100312.91;5056632;28;20028;-69
2023/07/01 05:32:01;;;;;;;5.88;4.45;;;;;;;14.57;100.00;100307.56;5058168;28;20063;-68
2023/07/01 05:34:26;;;;;;;4.68;4.20;;;;;;;14.59;100.00;100308.28;5057235;28;20050;-68
2023/07/01 05:36:51;;;;;;;5.28;4.35;;;;;;;14.60;100.00;100313.53;5061930;28;20508;-69
2023/07/01 05:39:17;;;;;;;5.82;4.38;;;;;;;14.60;100.00;100307.31;5050154;28;20029;-68
2023/07/01 05:41:43;;;;;;;4.40;4.03;;;;;;;14.58;100.00;100309.25;5050013;28;20024;-69
2023/07/01 05:44:10;;;;;;;4.55;4.15;;;;;;;14.58;100.00;100314.59;5061440;28;20064;-68
2023/07/01 05:46:36;;;;;;;7.30;5.45;;;;;;;14.59;100.00;100305.59;5052794;28;20032;-68
2023/07/01 05:49:04;;;;;;;5.03;4.50;;;;;;;14.58;100.00;100304.75;5055939;28;20039;-69
2023/07/01 05:51:30;;;;;;;5.68;4.38;;;;;;;14.59;100.00;100305.59;5047316;28;20330;-68
2023/07/01 05:53:55;;;;;;;5.13;4.60;;;;;;;14.57;100.00;100302.19;5063385;28;20051;-68
2023/07/01 05:56:20;;;;;;;4.72;4.32;;;;;;;14.61;100.00;100304.53;5061978;28;20028;-68
2023/07/01 05:58:46;;;;;;;5.53;5.00;;;;;;;14.60;100.00;100297.47;5062060;28;20064;-68
2023/07/01 06:01:11;;;;;;;5.38;4.50;;;;;;;14.61;100.00;100301.00;5060417;28;20035;-69
2023/07/01 06:03:36;;;;;;;5.88;5.18;;;;;;;14.61;100.00;100303.66;5057562;28;20020;-69
2023/07/01 06:06:02;;;;;;;5.78;4.78;;;;;;;14.63;100.00;100299.03;5057319;28;20501;-69
2023/07/01 06:08:27;;;;;;;5.88;5.32;;;;;;;14.64;100.00;100298.09;5062279;28;20040;-69
2023/07/01 06:10:53;;;;;;;5.65;5.15;;;;;;;14.64;100.00;100298.94;5055243;28;20102;-68
2023/07/01 06:13:18;;;;;;;5.20;4.70;;;;;;;14.67;100.00;100297.84;5055971;28;20029;-69
2023/07/01 06:15:44;;;;;;;5.05;4.40;;;;;;;14.72;100.00;100290.31;5050958;28;20265;-69
2023/07/01 06:18:10;;;;;;;5.32;4.82;;;;;;;14.71;100.00;100288.59;5053420;28;20104;-69
2023/07/01 06:20:35;;;;;;;7.18;5.40;;;;;;;14.75;100.00;100287.38;5062142;28;20670;-69
2023/07/01 06:23:01;;;;;;;6.25;4.88;;;;;;;14.79;100.00;100286.19;5063131;28;20425;-69
2023/07/01 06:25:26;;;;;;;6.20;4.30;;;;;;;14.85;100.00;100280.34;5058489;28;20085;-69
2023/07/01 06:27:51;;;;;;;5.68;5.07;;;;;;;14.92;100.00;100288.75;5055282;28;20025;-69
2023/07/01 06:30:17;;;;;;;5.15;4.75;;;;;;;15.00;100.00;100282.81;5057485;28;20062;-69
2023/07/01 06:32:42;;;;;;;5.03;4.63;;;;;;;15.05;100.00;100286.84;5059590;28;20023;-69
2023/07/01 06:35:08;;;;;;;4.82;4.40;;;;;;;15.07;100.00;100276.84;5056316;28;20115;-70
2023/07/01 06:37:33;;;;;;;5.05;4.57;;;;;;;15.06;100.00;100279.66;5054629;28;20031;-70
2023/07/01 06:39:59;;;;;;;4.90;4.45;;;;;;;15.02;100.00;100270.16;5054163;28;20032;-69
2023/07/01 06:42:24;;;;;;;4.70;4.30;;;;;;;15.00;100.00;100272.09;5058268;28;20037;-70
2023/07/01 06:44:49;;;;;;;4.68;4.28;;;;;;;15.03;100.00;100278.06;5053449;28;20111;-69
2023/07/01 06:47:15;;;;;;;4.43;4.13;;;;;;;15.03;100.00;100277.22;5050257;28;20107;-69
2023/07/01 06:49:40;;;;;;;4.55;4.25;;;;;;;15.03;100.00;100277.22;5054180;28;20403;-69
2023/07/01 06:52:06;;;;;;;4.78;4.38;;;;;;;15.04;100.00;100281.59;5049581;28;20068;-69
2023/07/01 06:54:31;;;;;;;4.60;4.20;;;;;;;15.05;100.00;100285.97;5055243;28;20035;-68
2023/07/01 06:56:57;;;;;;;6.20;4.25;;;;;;;15.09;100.00;100282.06;5050598;28;20478;-68
2023/07/01 06:59:22;;;;;;;4.70;4.30;;;;;;;15.17;100.00;100283.22;5056492;28;20041;-69
2023/07/01 07:01:48;;;;;;;4.82;4.43;;;;;;;15.14;100.00;100270.03;5058055;28;20021;-69
2023/07/01 07:04:13;;;;;;;5.15;4.40;;;;;;;15.18;100.00;100271.50;5045042;28;20033;-69
2023/07/01 07:06:38;;;;;;;4.38;3.97;;;;;;;15.25;100.00;100276.38;5056821;28;20482;-69
2023/07/01 07:09:05;;;;;;;4.45;4.05;;;;;;;15.32;100.00;100278.44;5048403;28;20032;-69
2023/07/01 07:11:31;;;;;;;4.60;4.30;;;;;;;15.39;100.00;100262.72;5057270;28;20043;-69
2023/07/01 07:13:57;;;;;;;4.47;4.10;;;;;;;15.44;100.00;100266.72;5044738;28;20075;-70
2023/07/01 07:16:22;;;;;;;4.43;4.10;;;;;;;15.48;100.00;100267.34;5044586;28;20028;-69
2023/07/01 07:18:48;;;;;;;5.03;4.63;;;;;;;15.53;100.00;100269.66;5050520;28;20498;-70
2023/07/01 07:21:13;;;;;;;4.78;4.45;;;;;;;15.58;100.00;100262.09;5056618;28;20092;-71
2023/07/01 07:23:39;;;;;;;5.32;4.93;;;;;;;15.61;100.00;100273.41;5057726;28;20475;-71
2023/07/01 07:26:07;;;;;;;5.93;5.43;;;;;;;15.61;100.00;100272.56;5054937;28;20483;-73
2023/07/01 07:28:33;;;;;;;5.38;4.97;;;;;;;15.63;100.00;100265.25;5059678;28;20406;-70
2023/07/01 07:30:58;;;;;;;5.93;5.43;;;;;;;15.65;100.00;100271.38;5056468;28;20025;-70
2023/07/01 07:33:24;;;;;;;6.50;5.93;;;;;;;15.68;100.00;100263.09;5053358;28;20028;-70
2023/07/01 07:35:49;;;;;;;6.60;5.97;;;;;;;15.73;100.00;100266.25;5055146;28;20028;-71
2023/07/01 07:38:15;;;;;;;6.22;5.72;;;;;;;15.77;100.00;100261.47;5055805;28;21231;-71
2023/07/01 07:40:42;;;;;;;6.75;6.15;;;;;;;15.80;100.00;100266.56;5076639;28;20024;-71
2023/07/01 07:43:09;;;;;;;6.90;6.30;;;;;;;15.84;100.00;100263.53;5061625;28;20025;-71
2023/07/01 07:45:34;;;;;;;7.88;7.18;;;;;;;15.97;100.00;100263.38;5060721;28;20143;-71
2023/07/01 07:47:59;;;;;;;7.35;6.75;;;;;;;16.06;100.00;100259.09;5058405;28;20166;-71
2023/07/01 07:50:25;;;;;;;7.43;6.85;;;;;;;16.12;100.00;100261.25;5053481;28;20469;-71
2023/07/01 07:52:50;;;;;;;10.00;7.70;;;;;;;16.15;100.00;100263.69;5057269;28;20243;-71
2023/07/01 07:55:16;;;;;;;8.20;7.50;;;;;;;16.22;100.00;100255.94;5053652;28;20720;-72
2023/07/01 07:57:41;;;;;;;7.47;6.88;;;;;;;16.23;100.00;100260.38;5048858;28;20033;-71
2023/07/01 08:00:08;;;;;;;8.32;7.63;;;;;;;16.14;100.00;100253.94;5052954;28;20540;-71
2023/07/01 08:02:33;;;;;;;8.35;7.75;;;;;;;15.98;100.00;100248.97;5056225;28;20021;-70
2023/07/01 08:04:59;;;;;;;8.50;7.90;;;;;;;15.89;100.00;100247.06;5060457;28;20488;-71
2023/07/01 08:07:24;;;;;;;8.95;8.25;;;;;;;15.88;100.00;100256.06;5061092;28;20154;-71
2023/07/01 08:09:49;;;;;;;9.07;8.38;;;;;;;15.91;100.00;100245.94;5053133;28;20028;-72
2023/07/01 08:12:15;;;;;;;8.70;7.90;;;;;;;16.00;100.00;100254.22;5050250;28;20535;-71
2023/07/01 08:14:40;;;;;;;7.32;6.75;;;;;;;16.07;100.00;100247.38;5051962;28;20033;-71
2023/07/01 08:17:05;;;;;;;6.30;5.90;;;;;;;16.08;100.00;100241.00;5052597;28;20036;-70
2023/07/01 08:19:31;;;;;;;6.57;6.05;;;;;;;16.19;100.00;100243.66;5056496;28;20119;-70
2023/07/01 08:21:56;;;;;;;5.63;5.22;;;;;;;16.29;100.00;100247.25;5070952;28;20190;-70
2023/07/01 08:24:21;;;;;;;4.72;4.40;;;;;;;16.32;100.00;100247.00;5060431;28;20123;-70
2023/07/01 08:26:48;;;;;;;4.70;4.30;;;;;;;16.46;100.00;100245.84;5059504;28;20117;-71
2023/07/01 08:29:13;;;;;;;4.95;4.60;;;;;;;16.54;100.00;100250.56;5049963;28;20033;-70
2023/07/01 08:31:40;;;;;;;4.07;3.88;;;;;;;16.64;100.00;100236.22;5042995;28;20123;-71
2023/07/01 08:34:06;;;;;;;4.30;4.00;;;;;;;16.69;100.00;100243.88;5048459;28;20036;-70
2023/07/01 08:36:34;;;;;;;4.00;3.70;;;;;;;16.74;100.00;100240.81;5045067;28;20036;-71
2023/07/01 08:39:00;;;;;;;4.22;3.95;;;;;;;16.67;100.00;100227.03;5049313;28;20086;-71
2023/07/01 08:41:25;;;;;;;4.28;3.97;;;;;;;16.75;100.00;100239.84;5042557;28;20391;-71
2023/07/01 08:43:55;;;;;;;3.20;3.00;;;;;;;16.84;100.00;100237.19;5041773;28;20236;-70
2023/07/01 08:46:22;;;;;;;3.22;2.95;;;;;;;16.98;100.00;100238.72;5055617;28;20256;-70
2023/07/01 08:48:48;;;;;;;3.05;2.85;;;;;;;17.01;100.00;100229.50;5053060;28;20702;-71
2023/07/01 08:51:28;;;;;;;2.53;2.40;;;;;;;17.01;100.00;100237.56;5042264;28;20029;-71
2023/07/01 08:53:53;;;;;;;2.55;2.35;;;;;;;16.99;100.00;100235.03;5041798;28;20396;-70
2023/07/01 08:56:19;;;;;;;2.15;2.00;;;;;;;16.94;100.00;100226.50;5058111;28;20036;-70
2023/07/01 08:58:47;;;;;;;2.40;2.30;;;;;;;16.86;100.00;100224.50;5045592;28;20033;-70
2023/07/01 09:01:13;;;;;;;2.78;2.58;;;;;;;16.70;100.00;100226.75;5042640;28;20024;-68
2023/07/01 09:03:39;;;;;;;2.90;2.70;;;;;;;16.65;100.00;100229.00;5059325;28;20162;-70
2023/07/01 09:06:07;;;;;;;2.67;2.47;;;;;;;16.59;100.00;100232.19;5057750;28;20111;-70
2023/07/01 09:08:38;;;;;;;3.13;2.88;;;;;;;16.59;100.00;100232.19;5054115;28;20033;-70
2023/07/01 09:11:05;;;;;;;2.70;2.50;;;;;;;16.55;100.00;100236.13;5044726;28;20090;-68
2023/07/01 09:13:30;;;;;;;2.58;2.38;;;;;;;16.47;100.00;100222.50;5051702;28;20033;-70
2023/07/01 09:15:56;;;;;;;2.70;2.55;;;;;;;16.49;100.00;100223.25;5047362;28;20056;-70
2023/07/01 09:18:24;;;;;;;2.70;2.50;;;;;;;16.52;100.00;100236.41;5055503;28;20382;-68
2023/07/01 09:20:50;;;;;;;2.45;2.30;;;;;;;16.60;100.00;100226.72;5042807;28;20029;-69
2023/07/01 09:23:32;;;;;;;2.40;2.20;;;;;;;16.66;100.00;100228.88;5044734;28;20358;-69
2023/07/01 09:26:07;;;;;;;1.88;1.77;;;;;;;16.69;100.00;100225.06;5045661;28;20024;-68
2023/07/01 09:28:34;;;;;;;2.40;1.90;;;;;;;16.77;100.00;100230.66;5061378;28;20115;-68
2023/07/01 09:31:00;;;;;;;1.83;1.63;;;;;;;16.87;100.00;100226.19;5050798;28;20092;-68
2023/07/01 09:33:26;;;;;;;1.90;1.80;;;;;;;16.99;100.00;100223.44;5048956;28;20044;-69
2023/07/01 09:36:01;;;;;;;2.08;1.88;;;;;;;17.23;100.00;100217.72;5050974;28;20565;-69
2023/07/01 09:38:26;;;;;;;1.90;1.80;;;;;;;17.38;100.00;100219.88;5042155;28;20037;-69
2023/07/01 09:40:52;;;;;;;2.30;1.67;;;;;;;17.65;100.00;100221.09;5041580;28;20768;-69
2023/07/01 09:43:19;;;;;;;1.42;1.33;;;;;;;17.93;100.00;100216.75;5042216;28;20058;-69
2023/07/01 09:45:55;;;;;;;1.92;1.40;;;;;;;18.32;100.00;100217.63;5043375;28;20029;-69
2023/07/01 09:48:21;;;;;;;2.15;1.40;;;;;;;18.46;100.00;100207.41;5049481;28;20039;-70
2023/07/01 09:50:48;;;;;;;1.30;1.20;;;;;;;18.64;100.00;100205.66;5045351;28;20028;-69
2023/07/01 09:53:26;;;;;;;1.52;1.23;;;;;;;18.75;100.00;100208.22;5051227;28;20032;-70
2023/07/01 09:55:52;;;;;;;1.40;1.17;;;;;;;18.60;100.00;100204.25;5053256;28;20510;-70
2023/07/01 09:58:17;;;;;;;1.38;1.27;;;;;;;18.49;100.00;100207.97;5043652;28;20485;-69
2023/07/01 10:00:43;;;;;;;1.02;0.90;;;;;;;18.44;100.00;100212.94;5047398;28;20581;-69
2023/07/01 10:03:08;;;;;;;1.27;1.17;;;;;;;18.45;100.00;100209.25;5047279;28;20706;-69
2023/07/01 10:05:34;;;;;;;1.25;1.00;;;;;;;18.35;100.00;100206.59;5054917;28;20033;-69
2023/07/01 10:07:59;;;;;;;1.38;1.15;;;;;;;18.26;100.00;100199.34;5047999;28;20094;-68
2023/07/01 10:10:26;;;;;;;1.45;1.35;;;;;;;18.09;100.00;100203.59;5053185;28;20487;-69
2023/07/01 10:12:53;;;;;;;1.60;1.50;;;;;;;18.12;100.00;100207.84;5048190;28;20244;-69
2023/07/01 10:15:24;;;;;;;1.40;1.30;;;;;;;18.19;100.00;100202.75;5045210;28;20029;-69
2023/07/01 10:17:51;;;;;;;1.45;1.35;;;;;;;18.22;100.00;100197.91;5046182;28;20091;-69
2023/07/01 10:20:30;;;;;;;1.55;1.35;;;;;;;18.30;100.00;100197.22;5046319;28;20040;-69
2023/07/01 10:23:03;;;;;;;1.30;1.25;;;;;;;18.26;100.00;100195.78;5045775;28;20073;-70
2023/07/01 10:25:30;;;;;;;1.50;1.40;;;;;;;18.31;100.00;100201.59;5056201;28;20020;-69
2023/07/01 10:27:59;;;;;;;3.63;2.03;;;;;;;18.23;100.00;100194.25;5058850;28;20071;-69
2023/07/01 10:30:25;;;;;;;2.95;1.90;;;;;;;18.25;100.00;100200.34;5058314;28;20032;-69
2023/07/01 10:32:51;;;;;;;1.60;1.50;;;;;;;18.30;100.00;100195.34;5049460;28;20025;-69
2023/07/01 10:35:17;;;;;;;2.55;1.65;;;;;;;18.26;100.00;100196.63;5056534;28;20537;-70
2023/07/01 10:38:03;;;;;;;1.63;1.50;;;;;;;18.27;100.00;100200.22;5043679;28;20025;-70
2023/07/01 10:40:29;;;;;;;2.25;1.75;;;;;;;18.25;100.00;100194.09;5044832;28;20053;-71
2023/07/01 10:43:36;;;;;;;1.80;1.70;;;;;;;18.38;100.00;100191.94;5056821;28;20521;-70
2023/07/01 10:46:11;;;;;;;1.95;1.85;;;;;;;18.27;100.00;100190.28;5044591;28;20269;-70
2023/07/01 10:48:38;;;;;;;1.88;1.77;;;;;;;18.21;100.00;100207.00;5052732;28;20047;-70
2023/07/01 10:51:13;;;;;;;2.65;2.13;;;;;;;18.26;100.00;100191.25;5057560;28;20032;-70
2023/07/01 10:53:59;;;;;;;1.95;1.85;;;;;;;18.35;100.00;100186.84;5048405;28;20021;-71
2023/07/01 10:56:25;;;;;;;1.80;1.70;;;;;;;18.49;100.00;100190.94;5045019;28;20263;-70
2023/07/01 10:59:18;;;;;;;2.03;1.92;;;;;;;18.75;100.00;100194.75;5051209;28;20506;-70
2023/07/01 11:01:45;;;;;;;1.90;1.80;;;;;;;19.02;100.00;100191.25;5062427;28;20057;-69
2023/07/01 11:04:11;;;;;;;2.38;2.17;;;;;;;19.16;100.00;100198.84;5045060;28;20024;-70
2023/07/01 11:06:49;;;;;;;1.85;1.75;;;;;;;19.37;100.00;100193.22;5044679;28;20029;-72
2023/07/01 11:09:16;;;;;;;2.00;1.80;;;;;;;19.67;100.00;100190.38;5044439;28;20040;-69
2023/07/01 11:11:42;;;;;;;1.95;1.77;;;;;;;20.18;100.00;100188.81;5057392;28;20074;-69
2023/07/01 11:14:10;;;;;;;1.70;1.60;;;;;;;20.58;100.00;100182.91;5062238;28;20063;-70
2023/07/01 11:16:37;;;;;;;2.25;2.05;;;;;;;20.61;97.85;100174.50;5055839;28;20040;-72
2023/07/01 11:19:08;;;;;;;2.15;1.92;;;;;;;20.36;100.00;100179.69;5071197;28;20032;-69